createdAt,value
2018-04-10T00:00:24.266Z,98692.39
2018-04-10T00:03:25.622Z,98693.17
2018-04-10T00:06:27.729Z,98700.14
2018-04-10T00:09:29.083Z,98695.55
2018-04-10T00:12:30.461Z,98683.54
2018-04-10T00:15:31.806Z,98678.90
2018-04-10T00:18:33.149Z,98688.00
2018-04-10T00:21:35.237Z,98688.35
2018-04-10T00:24:37.307Z,98676.67
2018-04-10T00:27:38.607Z,98681.64
2018-04-10T00:30:39.951Z,98696.38
2018-04-10T00:33:42.058Z,98690.00
2018-04-10T00:36:43.400Z,98688.03
2018-04-10T00:39:45.480Z,98694.83
2018-04-10T00:42:47.570Z,98705.36
2018-04-10T00:45:49.658Z,98704.95
2018-04-10T00:48:51.027Z,98708.53
2018-04-10T00:51:52.355Z,98701.69
2018-04-10T00:54:53.711Z,98709.59
2018-04-10T00:57:55.032Z,98706.39
2018-04-10T01:00:56.362Z,98708.35
2018-04-10T01:03:58.457Z,98710.52
2018-04-10T01:07:00.530Z,98710.09
2018-04-10T01:10:02.658Z,98702.16
2018-04-10T01:13:04.025Z,98700.23
2018-04-10T01:16:05.469Z,98706.91
2018-04-10T01:19:06.823Z,98711.02
2018-04-10T01:22:08.892Z,98711.16
2018-04-10T01:25:10.979Z,98727.21
2018-04-10T01:28:13.019Z,98732.89
2018-04-10T01:31:14.355Z,98734.34
2018-04-10T01:34:15.682Z,98729.81
2018-04-10T01:37:17.904Z,98715.92
2018-04-10T01:40:19.271Z,98718.73
2018-04-10T01:43:20.663Z,98731.14
2018-04-10T01:46:22.035Z,98721.44
2018-04-10T01:49:24.130Z,98721.51
2018-04-10T01:52:25.454Z,98719.91
2018-04-10T01:55:26.795Z,98715.64
2018-04-10T01:58:28.850Z,98695.52
2018-04-10T02:01:30.182Z,98699.02
2018-04-10T02:04:31.542Z,98710.81
2018-04-10T02:07:32.894Z,98705.03
2018-04-10T02:18:03.593Z,98737.55
2018-04-10T02:21:05.829Z,98737.16
2018-04-10T02:24:07.281Z,98729.13
2018-04-10T02:27:08.744Z,98723.92
2018-04-10T02:30:10.178Z,98730.19
2018-04-10T02:33:12.530Z,98734.66
2018-04-10T02:36:14.275Z,98743.65
2018-04-10T02:39:15.775Z,98746.62
2018-04-10T02:42:17.274Z,98750.28
2018-04-10T02:45:18.811Z,98742.98
2018-04-10T02:48:20.260Z,98743.55
2018-04-10T02:51:21.729Z,98715.55
2018-04-10T02:54:23.193Z,98738.03
2018-04-10T02:57:24.700Z,98745.70
2018-04-10T03:00:26.156Z,98742.70
2018-04-10T03:03:27.638Z,98739.29
2018-04-10T03:06:29.098Z,98736.88
2018-04-10T03:09:30.538Z,98745.19
2018-04-10T03:12:31.995Z,98740.84
2018-04-10T03:15:33.424Z,98740.12
2018-04-10T03:18:34.876Z,98740.60
2018-04-10T03:21:36.353Z,98740.40
2018-04-10T03:24:37.807Z,98735.76
2018-04-10T03:27:39.274Z,98737.24
2018-04-10T03:30:40.839Z,98740.44
2018-04-10T03:33:43.020Z,98735.30
2018-04-10T03:36:44.470Z,98733.59
2018-04-10T03:39:45.878Z,98732.39
2018-04-10T03:42:47.296Z,98742.20
2018-04-10T03:45:48.731Z,98735.47
2018-04-10T03:48:50.924Z,98738.31
2018-04-10T03:51:53.150Z,98744.87
2018-04-10T03:54:54.614Z,98750.80
2018-04-10T03:57:56.052Z,98763.86
2018-04-10T04:00:58.149Z,98776.48
2018-04-10T04:03:59.495Z,98775.72
2018-04-10T04:07:01.839Z,98777.25
2018-04-10T04:10:03.460Z,98774.81
2018-04-10T04:13:05.572Z,98782.91
2018-04-10T04:16:06.965Z,98778.72
2018-04-10T04:19:26.933Z,98781.91
2018-04-10T04:22:37.303Z,98779.19
2018-04-10T04:25:38.645Z,98767.23
2018-04-10T04:28:40.707Z,98766.98
2018-04-10T04:31:42.979Z,98766.56
2018-04-10T04:34:44.311Z,98776.43
2018-04-10T04:37:45.656Z,98772.42
2018-04-10T04:40:47.001Z,98783.86
2018-04-10T04:43:49.090Z,98783.52
2018-04-10T04:46:51.219Z,98787.48
2018-04-10T04:49:52.574Z,98783.18
2018-04-10T04:52:53.923Z,98774.75
2018-04-10T04:55:55.268Z,98783.96
2018-04-10T04:58:57.341Z,98779.27
2018-04-10T05:01:58.624Z,98785.12
2018-04-10T05:05:00.833Z,98784.56
2018-04-10T05:08:02.232Z,98774.80
2018-04-10T05:11:04.337Z,98787.78
2018-04-10T05:14:05.667Z,98791.19
2018-04-10T05:17:07.092Z,98793.45
2018-04-10T05:20:09.155Z,98791.80
2018-04-10T05:23:10.454Z,98791.92
2018-04-10T05:26:11.957Z,98797.94
2018-04-10T05:29:13.282Z,98803.63
2018-04-10T05:32:14.595Z,98809.03
2018-04-10T05:35:17.062Z,98805.55
2018-04-10T05:38:18.390Z,98806.45
2018-04-10T05:41:20.468Z,98804.22
2018-04-10T05:44:22.500Z,98805.50
2018-04-10T05:47:38.771Z,98805.08
2018-04-10T05:50:40.827Z,98811.23
2018-04-10T05:53:42.197Z,98812.53
2018-04-10T05:56:43.515Z,98813.81
2018-04-10T05:59:44.828Z,98827.46
2018-04-10T06:02:46.144Z,98822.04
2018-04-10T06:05:47.502Z,98818.64
2018-04-10T06:08:48.867Z,98832.73
2018-04-10T06:11:50.266Z,98831.58
2018-04-10T06:14:51.614Z,98832.84
2018-04-10T06:17:52.985Z,98833.68
2018-04-10T06:20:54.348Z,98838.17
2018-04-10T06:23:55.683Z,98832.27
2018-04-10T06:26:57.009Z,98840.83
2018-04-10T06:29:58.356Z,98836.71
2018-04-10T06:32:59.720Z,98838.78
2018-04-10T06:36:01.106Z,98841.87
2018-04-10T06:39:02.555Z,98848.03
2018-04-10T06:42:03.939Z,98850.74
2018-04-10T06:45:05.252Z,98850.41
2018-04-10T06:48:06.610Z,98853.45
2018-04-10T06:51:07.959Z,98864.43
2018-04-10T06:54:10.066Z,98861.67
2018-04-10T06:57:11.412Z,98862.56
2018-04-10T07:00:13.541Z,98869.62
2018-04-10T07:03:14.941Z,98866.00
2018-04-10T07:06:17.063Z,98876.15
2018-04-10T07:09:18.432Z,98878.55
2018-04-10T07:12:19.773Z,98881.69
2018-04-10T07:15:21.899Z,98885.09
2018-04-10T07:18:23.292Z,98883.52
2018-04-10T07:21:24.651Z,98881.08
2018-04-10T07:24:25.964Z,98879.87
2018-04-10T07:27:28.043Z,98873.95
2018-04-10T07:30:29.352Z,98884.64
2018-04-10T07:33:31.496Z,98877.89
2018-04-10T07:36:32.808Z,98874.58
2018-04-10T07:39:34.137Z,98870.86
2018-04-10T07:42:35.519Z,98866.91
2018-04-10T07:45:36.889Z,98830.93
2018-04-10T07:48:38.287Z,98860.60
2018-04-10T07:51:39.682Z,98870.75
2018-04-10T07:54:41.771Z,98871.80
2018-04-10T07:57:43.163Z,98875.91
2018-04-10T08:00:44.521Z,98874.05
2018-04-10T08:03:45.861Z,98871.66
2018-04-10T08:06:47.944Z,98879.25
2018-04-10T08:09:49.285Z,98885.64
2018-04-10T08:12:50.646Z,98884.91
2018-04-10T08:15:51.990Z,98891.86
2018-04-10T08:18:54.081Z,98898.58
2018-04-10T08:21:55.388Z,98904.16
2018-04-10T08:24:57.519Z,98909.69
2018-04-10T08:27:58.867Z,98917.22
2018-04-10T08:31:00.251Z,98925.91
2018-04-10T08:34:01.611Z,98922.34
2018-04-10T08:37:02.935Z,98924.04
2018-04-10T08:40:05.202Z,98930.14
2018-04-10T08:43:07.426Z,98925.64
2018-04-10T08:46:08.735Z,98934.75
2018-04-10T08:49:10.090Z,98940.69
2018-04-10T08:52:12.357Z,98939.80
2018-04-10T08:55:13.714Z,98937.06
2018-04-10T08:58:15.039Z,98932.79
2018-04-10T09:01:17.110Z,98939.20
2018-04-10T09:04:18.410Z,98933.08
2018-04-10T09:07:19.746Z,98934.45
2018-04-10T09:10:21.092Z,98929.88
2018-04-10T09:13:22.458Z,98928.05
2018-04-10T09:16:23.787Z,98930.38
2018-04-10T09:19:25.130Z,98933.77
2018-04-10T09:22:26.495Z,98929.67
2018-04-10T09:25:27.839Z,98934.66
2018-04-10T09:28:29.154Z,98937.58
2018-04-10T09:31:30.508Z,98932.83
2018-04-10T09:34:31.864Z,98940.91
2018-04-10T09:37:33.196Z,98938.97
2018-04-10T09:40:34.549Z,98935.14
2018-04-10T09:43:35.951Z,98932.27
2018-04-10T09:46:37.333Z,98930.77
2018-04-10T09:49:38.689Z,98929.82
2018-04-10T09:52:40.028Z,98932.19
2018-04-10T09:55:42.111Z,98930.38
2018-04-10T09:58:44.162Z,98939.00
2018-04-10T10:01:45.603Z,98926.52
2018-04-10T10:04:46.943Z,98932.77
2018-04-10T10:07:48.266Z,98933.86
2018-04-10T10:10:49.621Z,98934.59
2018-04-10T10:13:50.940Z,98929.89
2018-04-10T10:16:52.272Z,98923.83
2018-04-10T10:19:53.653Z,98930.77
2018-04-10T10:22:55.734Z,98928.40
2018-04-10T10:25:57.092Z,98931.67
2018-04-10T10:28:58.400Z,98924.63
2018-04-10T10:31:59.727Z,98921.73
2018-04-10T10:35:01.085Z,98925.38
2018-04-10T10:38:02.443Z,98923.31
2018-04-10T10:41:03.838Z,98922.27
2018-04-10T10:44:05.908Z,98926.17
2018-04-10T10:47:07.995Z,98919.22
2018-04-10T10:50:10.084Z,98922.53
2018-04-10T10:53:12.166Z,98917.88
2018-04-10T10:56:14.189Z,98917.08
2018-04-10T10:59:15.536Z,98920.84
2018-04-10T11:02:16.861Z,98919.02
2018-04-10T11:05:18.180Z,98914.38
2018-04-10T11:08:19.505Z,98914.66
2018-04-10T11:11:21.585Z,98921.00
2018-04-10T11:14:23.667Z,98907.56
2018-04-10T11:17:25.793Z,98905.11
2018-04-10T11:20:27.173Z,98911.48
2018-04-10T11:23:28.531Z,98912.98
2018-04-10T11:26:29.895Z,98906.10
2018-04-10T11:29:31.281Z,98906.42
2018-04-10T11:32:32.623Z,98907.14
2018-04-10T11:35:33.967Z,98903.10
2018-04-10T11:38:35.317Z,98899.05
2018-04-10T11:41:37.420Z,98899.66
2018-04-10T11:44:38.768Z,98902.28
2018-04-10T11:47:40.132Z,98896.36
2018-04-10T11:50:42.206Z,98895.45
2018-04-10T11:53:44.376Z,98890.50
2018-04-10T11:56:45.699Z,98892.21
2018-04-10T11:59:47.046Z,98890.94
2018-04-10T12:02:48.379Z,98892.64
2018-04-10T12:05:49.731Z,98895.83
2018-04-10T12:08:51.043Z,98892.55
2018-04-10T12:11:52.364Z,98892.39
2018-04-10T12:14:53.713Z,98888.69
2018-04-10T12:17:55.044Z,98886.73
2018-04-10T12:20:56.402Z,98881.67
2018-04-10T12:23:57.777Z,98878.87
2018-04-10T12:26:59.117Z,98871.17
2018-04-10T12:30:00.485Z,98867.02
2018-04-10T12:33:01.811Z,98860.00
2018-04-10T12:36:03.184Z,98860.40
2018-04-10T12:39:05.518Z,98862.31
2018-04-10T12:42:06.886Z,98860.70
2018-04-10T12:45:08.267Z,98859.80
2018-04-10T12:48:09.647Z,98847.68
2018-04-10T12:51:11.045Z,98846.70
2018-04-10T12:54:13.169Z,98842.64
2018-04-10T12:57:14.508Z,98835.33
2018-04-10T13:00:16.604Z,98833.38
2018-04-10T13:03:17.970Z,98831.27
2018-04-10T13:06:19.368Z,98834.98
2018-04-10T13:09:20.695Z,98823.73
2018-04-10T13:12:22.041Z,98825.63
2018-04-10T13:15:23.402Z,98827.48
2018-04-10T13:18:24.778Z,98824.98
2018-04-10T13:21:26.858Z,98827.09
2018-04-10T13:24:28.955Z,98821.31
2018-04-10T13:27:31.017Z,98826.92
2018-04-10T13:30:33.136Z,98821.14
2018-04-10T13:33:34.494Z,98815.98
2018-04-10T13:36:35.837Z,98817.10
2018-04-10T13:39:37.914Z,98809.70
2018-04-10T13:42:39.273Z,98818.28
2018-04-10T13:45:40.626Z,98814.97
2018-04-10T13:48:41.928Z,98808.11
2018-04-10T13:51:44.026Z,98813.11
2018-04-10T13:54:45.650Z,98798.28
2018-04-10T13:57:46.993Z,98803.55
2018-04-10T14:00:48.473Z,98802.89
2018-04-10T14:03:49.850Z,98799.20
2018-04-10T14:06:51.278Z,98793.55
2018-04-10T14:09:52.693Z,98796.14
2018-04-10T14:12:54.103Z,98788.52
2018-04-10T14:15:55.423Z,98785.66
2018-04-10T14:18:56.776Z,98783.63
2018-04-10T14:21:58.149Z,98778.16
2018-04-10T14:24:59.518Z,98775.18
2018-04-10T14:28:00.853Z,98778.30
2018-04-10T14:31:02.226Z,98770.31
2018-04-10T14:34:03.580Z,98764.93
2018-04-10T14:37:04.961Z,98768.77
2018-04-10T14:40:06.407Z,98755.89
2018-04-10T14:43:07.824Z,98760.34
2018-04-10T14:46:09.150Z,98757.27
2018-04-10T14:49:10.436Z,98754.94
2018-04-10T14:52:11.854Z,98755.42
2018-04-10T14:55:13.295Z,98755.27
2018-04-10T14:58:15.366Z,98747.78
2018-04-10T15:01:16.693Z,98744.42
2018-04-10T15:04:18.027Z,98740.38
2018-04-10T15:07:19.331Z,98735.23
2018-04-10T15:10:20.658Z,98745.11
2018-04-10T15:13:21.990Z,98745.70
2018-04-10T15:16:24.048Z,98744.50
2018-04-10T15:19:25.403Z,98740.03
2018-04-10T15:22:26.811Z,98738.69
2018-04-10T15:25:28.901Z,98740.84
2018-04-10T15:28:30.970Z,98740.69
2018-04-10T15:31:32.255Z,98732.27
2018-04-10T15:34:34.362Z,98741.29
2018-04-10T15:37:35.789Z,98736.01
2018-04-10T15:40:37.860Z,98734.44
2018-04-10T15:43:39.300Z,98738.39
2018-04-10T15:46:40.690Z,98727.19
2018-04-10T15:49:42.059Z,98734.41
2018-04-10T15:52:43.431Z,98738.78
2018-04-10T15:55:45.600Z,98734.34
2018-04-10T15:58:46.990Z,98729.81
2018-04-10T16:01:49.175Z,98735.30
2018-04-10T16:04:51.374Z,98741.78
2018-04-10T16:07:52.863Z,98726.82
2018-04-10T16:10:54.269Z,98725.84
2018-04-10T16:13:55.708Z,98729.01
2018-04-10T16:16:57.203Z,98723.42
2018-04-10T16:19:58.593Z,98726.44
2018-04-10T16:23:00.730Z,98716.59
2018-04-10T16:26:02.153Z,98719.62
2018-04-10T16:29:04.308Z,98711.83
2018-04-10T16:32:05.702Z,98716.09
2018-04-10T16:35:07.073Z,98709.73
2018-04-10T16:38:09.234Z,98707.95
2018-04-10T16:41:10.614Z,98707.70
2018-04-10T16:44:12.790Z,98714.36
2018-04-10T16:47:14.943Z,98708.05
2018-04-10T16:50:16.336Z,98706.09
2018-04-10T16:53:18.429Z,98712.20
2018-04-10T16:56:20.543Z,98701.05
2018-04-10T16:59:21.943Z,98706.70
2018-04-10T17:02:23.346Z,98704.78
2018-04-10T17:05:25.535Z,98706.73
2018-04-10T17:08:27.678Z,98701.30
2018-04-10T17:11:29.062Z,98700.73
2018-04-10T17:14:30.467Z,98696.28
2018-04-10T17:17:31.840Z,98707.02
2018-04-10T17:20:33.293Z,98706.06
2018-04-10T17:23:35.429Z,98696.17
2018-04-10T17:26:36.850Z,98694.11
2018-04-10T17:29:38.261Z,98699.45
2018-04-10T17:32:39.629Z,98704.07
2018-04-10T17:35:41.019Z,98706.13
2018-04-10T17:38:43.249Z,98705.80
2018-04-10T17:41:44.659Z,98713.11
2018-04-10T17:44:45.993Z,98713.92
2018-04-10T17:47:47.382Z,98717.55
2018-04-10T17:50:48.891Z,98721.08
2018-04-10T17:53:50.254Z,98727.63
2018-04-10T17:56:52.397Z,98730.63
2018-04-10T17:59:53.787Z,98746.47
2018-04-10T18:02:55.296Z,98740.31
2018-04-10T18:05:56.863Z,98734.96
2018-04-10T18:08:58.259Z,98733.99
2018-04-10T18:11:59.585Z,98735.25
2018-04-10T18:15:01.743Z,98724.39
2018-04-10T18:18:03.099Z,98717.22
2018-04-10T18:21:04.511Z,98705.09
2018-04-10T18:24:05.871Z,98709.91
2018-04-10T18:27:07.435Z,98700.89
2018-04-10T18:30:09.733Z,98708.70
2018-04-10T18:33:11.668Z,98717.27
2018-04-10T18:36:13.377Z,98718.13
2018-04-10T18:39:15.459Z,98718.27
2018-04-10T18:42:17.565Z,98737.45
2018-04-10T18:45:18.938Z,98754.67
2018-04-10T18:48:21.938Z,98753.82
2018-04-10T18:51:23.732Z,98746.78
2018-04-10T18:54:26.292Z,98754.02
2018-04-10T18:57:27.809Z,98752.11
2018-04-10T19:00:30.964Z,98759.75
2018-04-10T19:03:32.863Z,98756.19
2018-04-10T19:06:34.450Z,98763.02
2018-04-10T19:09:36.587Z,98765.59
2018-04-10T19:12:39.106Z,98786.59
2018-04-10T19:15:40.516Z,98864.00
2018-04-10T19:18:42.431Z,98860.89
2018-04-10T19:21:44.395Z,98882.86
2018-04-10T19:24:47.839Z,98912.78
2018-04-10T19:27:49.680Z,98884.96
2018-04-10T19:30:51.789Z,98902.41
2018-04-10T19:33:53.619Z,98916.58
2018-04-10T19:36:55.896Z,98909.66
2018-04-10T19:39:58.688Z,98898.38
2018-04-10T19:43:00.437Z,98895.27
2018-04-10T19:46:02.240Z,98896.61
2018-04-10T19:49:03.841Z,98897.66
2018-04-10T19:52:06.247Z,98892.69
2018-04-10T19:55:08.840Z,98890.13
2018-04-10T19:58:10.232Z,98880.47
2018-04-10T20:01:12.273Z,98872.48
2018-04-10T20:04:14.280Z,98878.75
2018-04-10T20:07:16.685Z,98884.44
2018-04-10T20:10:18.558Z,98887.00
2018-04-10T20:13:20.169Z,98880.04
2018-04-10T20:16:22.402Z,98886.39
2018-04-10T20:19:23.749Z,98884.23
2018-04-10T20:22:25.550Z,98884.12
2018-04-10T20:25:26.868Z,98895.55
2018-04-10T20:28:29.007Z,98914.83
2018-04-10T20:31:31.485Z,98925.66
2018-04-10T20:34:32.861Z,98930.60
2018-04-10T20:37:34.723Z,98961.95
2018-04-10T20:40:36.749Z,98953.83
2018-04-10T20:43:38.603Z,98934.33
2018-04-10T20:46:40.037Z,98912.55
2018-04-10T20:49:41.354Z,98899.53
2018-04-10T20:52:42.961Z,98893.63
2018-04-10T20:55:44.311Z,98894.02
2018-04-10T20:58:45.638Z,98897.41
2018-04-10T21:01:47.217Z,98905.11
2018-04-10T21:04:48.553Z,98905.08
2018-04-10T21:07:51.159Z,98913.52
2018-04-10T21:10:52.517Z,98917.49
2018-04-10T21:13:54.675Z,98929.25
2018-04-10T21:16:55.993Z,98928.25
2018-04-10T21:19:57.435Z,98918.53
2018-04-10T21:22:59.651Z,98928.81
2018-04-10T21:26:00.969Z,98913.17
2018-04-10T21:29:02.363Z,98915.64
2018-04-10T21:32:03.777Z,98933.75
2018-04-10T21:35:05.219Z,98932.53
2018-04-10T21:38:07.684Z,98915.82
2018-04-10T21:41:09.829Z,98922.18
2018-04-10T21:44:12.871Z,98940.45
2018-04-10T21:47:15.905Z,98933.37
2018-04-10T21:50:18.509Z,98944.36
2018-04-10T21:53:20.173Z,98942.55
2018-04-10T21:56:22.030Z,98946.41
2018-04-10T21:59:23.364Z,98960.48
2018-04-10T22:02:24.914Z,98952.83
2018-04-10T22:05:26.273Z,98969.32
2018-04-10T22:08:27.598Z,98966.13
2018-04-10T22:11:29.040Z,98974.30
2018-04-10T22:14:31.090Z,98987.78
2018-04-10T22:17:32.375Z,98988.64
2018-04-10T22:20:34.424Z,99003.52
2018-04-10T22:23:35.757Z,99000.74
2018-04-10T22:26:37.073Z,99010.60
2018-04-10T22:29:38.369Z,99011.08
2018-04-10T22:32:40.373Z,99014.33
2018-04-10T22:35:42.432Z,99019.44
2018-04-10T22:38:43.753Z,99026.48
2018-04-10T22:41:45.751Z,99031.13
2018-04-10T22:44:47.053Z,99026.04
2018-04-10T22:47:48.322Z,99025.37
2018-04-10T22:50:50.115Z,99021.57
2018-04-10T22:53:51.494Z,99024.64
2018-04-10T22:56:53.189Z,99011.83
2018-04-10T22:59:55.291Z,99025.92
2018-04-10T23:03:03.598Z,99034.16
2018-04-10T23:06:05.646Z,99029.05
2018-04-10T23:09:07.217Z,99024.77
2018-04-10T23:12:08.584Z,99028.72
2018-04-10T23:15:09.881Z,99035.20
2018-04-10T23:18:11.287Z,99035.77
2018-04-10T23:21:12.621Z,99027.48
2018-04-10T23:24:13.910Z,99035.19
2018-04-10T23:27:15.963Z,99030.64
2018-04-10T23:30:17.266Z,99038.38
2018-04-10T23:33:18.656Z,99041.17
2018-04-10T23:36:20.201Z,99037.63
2018-04-10T23:39:21.687Z,99041.42
2018-04-10T23:42:23.310Z,99040.46
2018-04-10T23:45:24.867Z,99043.05
2018-04-10T23:48:26.170Z,99064.07
2018-04-10T23:51:28.210Z,99054.95
2018-04-10T23:54:29.478Z,99057.09
2018-04-10T23:57:30.746Z,99048.78
